createdAt,value
2018-10-05T00:02:24.929Z,16.00
2018-10-05T00:04:54.094Z,16.73
2018-10-05T00:07:23.362Z,16.80
2018-10-05T00:09:52.496Z,16.70
2018-10-05T00:12:21.635Z,16.97
2018-10-05T00:14:50.803Z,19.70
2018-10-05T00:17:19.948Z,16.40
2018-10-05T00:19:49.578Z,16.30
2018-10-05T00:22:18.868Z,16.33
2018-10-05T00:24:48.034Z,15.00
2018-10-05T00:27:17.215Z,15.83
2018-10-05T00:29:46.434Z,16.37
2018-10-05T00:32:15.650Z,15.33
2018-10-05T00:34:44.804Z,15.63
2018-10-05T00:37:14.004Z,16.77
2018-10-05T00:39:43.194Z,14.40
2018-10-05T00:42:12.300Z,18.13
2018-10-05T00:44:41.445Z,15.83
2018-10-05T00:47:10.663Z,15.50
2018-10-05T00:49:39.796Z,15.73
2018-10-05T00:52:09.036Z,15.77
2018-10-05T00:54:38.193Z,15.40
2018-10-05T00:57:07.603Z,15.87
2018-10-05T00:59:36.741Z,14.70
2018-10-05T01:02:05.918Z,16.40
2018-10-05T01:04:35.047Z,16.00
2018-10-05T01:07:04.253Z,16.20
2018-10-05T01:09:33.377Z,15.30
2018-10-05T01:12:02.507Z,15.63
2018-10-05T01:14:31.682Z,16.37
2018-10-05T01:17:00.827Z,15.50
2018-10-05T01:19:29.948Z,15.10
2018-10-05T01:21:59.330Z,17.07
2018-10-05T01:24:28.463Z,16.47
2018-10-05T01:26:57.588Z,15.87
2018-10-05T01:29:26.750Z,15.77
2018-10-05T01:31:56.090Z,16.13
2018-10-05T01:34:25.248Z,16.60
2018-10-05T01:36:54.386Z,15.63
2018-10-05T01:39:23.553Z,15.47
2018-10-05T01:41:52.808Z,15.67
2018-10-05T01:44:21.991Z,15.83
2018-10-05T01:46:51.180Z,16.70
2018-10-05T01:49:20.394Z,14.73
2018-10-05T01:51:49.536Z,15.77
2018-10-05T01:54:18.686Z,14.27
2018-10-05T01:56:48.016Z,15.93
2018-10-05T01:59:17.203Z,15.80
2018-10-05T02:01:46.329Z,14.73
2018-10-05T02:04:15.462Z,15.20
2018-10-05T02:06:44.614Z,15.03
2018-10-05T02:09:14.523Z,15.17
2018-10-05T02:11:43.665Z,15.03
2018-10-05T02:14:12.814Z,15.97
2018-10-05T02:16:42.722Z,15.77
2018-10-05T02:19:12.342Z,15.47
2018-10-05T02:21:41.509Z,15.93
2018-10-05T02:24:10.632Z,16.00
2018-10-05T02:26:40.108Z,14.20
2018-10-05T02:29:09.610Z,15.57
2018-10-05T02:31:39.708Z,15.70
2018-10-05T02:34:08.847Z,14.70
2018-10-05T02:36:38.073Z,14.30
2018-10-05T02:39:10.366Z,16.00
2018-10-05T02:41:39.616Z,13.87
2018-10-05T02:44:08.721Z,15.57
2018-10-05T02:46:37.853Z,16.03
2018-10-05T02:49:07.271Z,15.17
2018-10-05T02:51:36.481Z,13.83
2018-10-05T02:54:05.606Z,14.40
2018-10-05T02:56:34.760Z,15.77
2018-10-05T02:59:03.937Z,14.13
2018-10-05T03:01:44.161Z,15.40
2018-10-05T03:04:13.389Z,15.80
2018-10-05T03:06:42.518Z,13.67
2018-10-05T03:09:11.694Z,13.90
2018-10-05T03:11:40.826Z,14.83
2018-10-05T03:14:09.949Z,15.73
2018-10-05T03:16:39.248Z,15.70
2018-10-05T03:19:08.582Z,14.37
2018-10-05T03:21:37.773Z,15.27
2018-10-05T03:24:06.930Z,12.67
2018-10-05T03:26:36.095Z,14.27
2018-10-05T03:29:05.281Z,14.00
2018-10-05T03:31:34.515Z,13.53
2018-10-05T03:34:03.670Z,12.93
2018-10-05T03:36:32.798Z,14.70
2018-10-05T03:39:01.952Z,12.53
2018-10-05T03:41:31.129Z,14.27
2018-10-05T03:44:00.305Z,13.30
2018-10-05T03:46:29.642Z,13.57
2018-10-05T03:48:58.767Z,14.87
2018-10-05T03:51:27.898Z,13.90
2018-10-05T03:53:57.067Z,13.63
2018-10-05T03:56:26.264Z,12.67
2018-10-05T03:58:55.389Z,13.37
2018-10-05T04:01:24.577Z,14.10
2018-10-05T04:03:53.702Z,12.30
2018-10-05T04:06:23.441Z,13.27
2018-10-05T04:08:52.630Z,13.73
2018-10-05T04:11:21.778Z,13.90
2018-10-05T04:13:50.928Z,14.50
2018-10-05T04:16:20.097Z,14.30
2018-10-05T04:18:49.230Z,12.53
2018-10-05T04:21:18.353Z,12.63
2018-10-05T04:23:47.512Z,12.50
2018-10-05T04:26:16.649Z,12.80
2018-10-05T04:28:45.824Z,13.30
2018-10-05T04:31:14.997Z,12.73
2018-10-05T04:33:44.212Z,13.63
2018-10-05T04:36:13.415Z,13.97
2018-10-05T04:38:42.559Z,13.40
2018-10-05T04:41:11.745Z,13.20
2018-10-05T04:43:40.888Z,13.20
2018-10-05T04:46:10.095Z,14.80
2018-10-05T04:48:39.245Z,12.83
2018-10-05T04:51:08.544Z,12.53
2018-10-05T04:53:37.813Z,13.93
2018-10-05T04:56:06.966Z,13.90
2018-10-05T04:58:36.120Z,12.13
2018-10-05T05:01:05.291Z,13.30
2018-10-05T05:03:34.463Z,13.60
2018-10-05T05:06:03.658Z,14.13
2018-10-05T05:08:32.805Z,16.37
2018-10-05T05:11:02.452Z,14.73
2018-10-05T05:13:31.583Z,14.00
2018-10-05T05:16:00.830Z,15.40
2018-10-05T05:18:30.048Z,14.20
2018-10-05T05:20:59.184Z,14.70
2018-10-05T05:23:28.334Z,14.50
2018-10-05T05:25:57.531Z,14.87
2018-10-05T05:28:26.699Z,14.37
2018-10-05T05:30:55.834Z,14.70
2018-10-05T05:33:25.148Z,14.77
2018-10-05T05:35:54.454Z,15.33
2018-10-05T05:38:23.616Z,13.90
2018-10-05T05:40:52.865Z,13.30
2018-10-05T05:43:22.030Z,14.80
2018-10-05T05:45:51.172Z,14.07
2018-10-05T05:48:20.336Z,12.70
2018-10-05T05:50:49.475Z,11.90
2018-10-05T05:53:18.697Z,12.30
2018-10-05T05:55:47.847Z,11.03
2018-10-05T05:58:16.998Z,11.23
2018-10-05T06:00:46.265Z,11.30
2018-10-05T06:03:15.415Z,10.70
2018-10-05T06:05:44.533Z,11.90
2018-10-05T06:08:14.082Z,11.33
2018-10-05T06:10:43.197Z,11.60
2018-10-05T06:13:12.365Z,12.20
2018-10-05T06:15:44.525Z,11.33
2018-10-05T06:18:13.694Z,10.93
2018-10-05T06:20:42.850Z,10.50
2018-10-05T06:23:11.996Z,10.87
2018-10-05T06:25:41.395Z,11.10
2018-10-05T06:28:10.845Z,10.10
2018-10-05T06:30:40.293Z,11.03
2018-10-05T06:33:09.592Z,10.63
2018-10-05T06:35:38.727Z,10.57
2018-10-05T06:38:07.884Z,10.93
2018-10-05T06:40:37.071Z,10.10
2018-10-05T06:43:06.621Z,9.90
2018-10-05T06:45:35.897Z,10.53
2018-10-05T06:48:05.101Z,11.87
2018-10-05T06:50:34.247Z,11.63
2018-10-05T06:53:03.437Z,10.70
2018-10-05T06:55:32.616Z,9.90
2018-10-05T06:58:01.781Z,10.47
2018-10-05T07:00:30.962Z,9.60
2018-10-05T07:03:00.118Z,9.80
2018-10-05T07:05:29.293Z,9.93
2018-10-05T07:07:58.510Z,10.53
2018-10-05T07:10:27.649Z,10.87
2018-10-05T07:12:56.797Z,11.10
2018-10-05T07:15:26.072Z,11.87
2018-10-05T07:17:55.197Z,10.60
2018-10-05T07:20:24.341Z,10.23
2018-10-05T07:22:53.537Z,10.37
2018-10-05T07:25:22.737Z,10.63
2018-10-05T07:27:51.898Z,10.87
2018-10-05T07:30:21.088Z,11.63
2018-10-05T07:32:50.277Z,10.57
2018-10-05T07:35:19.441Z,11.07
2018-10-05T07:37:48.657Z,10.70
2018-10-05T07:40:17.838Z,11.40
2018-10-05T07:42:47.012Z,11.43
2018-10-05T07:45:16.203Z,12.13
2018-10-05T07:47:45.969Z,10.80
2018-10-05T07:50:15.137Z,10.80
2018-10-05T07:52:44.418Z,12.80
2018-10-05T07:55:13.614Z,10.60
2018-10-05T07:57:42.858Z,11.50
2018-10-05T08:00:12.821Z,10.57
2018-10-05T08:02:42.393Z,10.97
2018-10-05T08:05:11.819Z,11.90
2018-10-05T08:07:41.813Z,12.77
2018-10-05T08:10:10.985Z,10.20
2018-10-05T08:12:40.188Z,10.53
2018-10-05T08:15:10.887Z,10.97
2018-10-05T08:17:40.156Z,11.73
2018-10-05T08:20:09.331Z,11.40
2018-10-05T08:22:38.531Z,11.67
2018-10-05T08:25:07.921Z,11.90
2018-10-05T08:27:37.149Z,10.50
2018-10-05T08:30:06.936Z,11.57
2018-10-05T08:32:36.132Z,11.00
2018-10-05T08:35:05.405Z,10.33
2018-10-05T08:37:34.585Z,11.00
2018-10-05T08:40:03.762Z,11.57
2018-10-05T08:42:32.988Z,10.97
2018-10-05T08:45:02.138Z,12.20
2018-10-05T08:47:31.341Z,12.10
2018-10-05T08:50:01.702Z,11.60
2018-10-05T08:52:31.174Z,12.60
2018-10-05T08:55:00.461Z,10.97
2018-10-05T08:57:29.809Z,11.70
2018-10-05T08:59:59.011Z,12.43
2018-10-05T09:02:28.171Z,11.77
2018-10-05T09:04:57.322Z,13.00
2018-10-05T09:07:26.514Z,11.67
2018-10-05T09:09:55.696Z,13.37
2018-10-05T09:12:24.809Z,12.43
2018-10-05T09:14:53.986Z,12.60
2018-10-05T09:17:23.130Z,13.40
2018-10-05T09:19:52.250Z,11.90
2018-10-05T09:22:21.450Z,12.73
2018-10-05T09:24:50.773Z,12.60
2018-10-05T09:27:19.941Z,13.53
2018-10-05T09:29:50.002Z,12.50
2018-10-05T09:32:19.540Z,13.10
2018-10-05T09:34:48.712Z,14.27
2018-10-05T09:37:17.924Z,13.07
2018-10-05T09:39:47.063Z,12.80
2018-10-05T09:42:16.258Z,13.00
2018-10-05T09:44:45.420Z,12.90
2018-10-05T09:47:14.622Z,13.60
2018-10-05T09:49:43.775Z,11.77
2018-10-05T09:52:13.007Z,13.53
2018-10-05T09:54:42.125Z,11.53
2018-10-05T09:57:11.285Z,13.77
2018-10-05T09:59:40.525Z,13.10
2018-10-05T10:02:14.871Z,13.53
2018-10-05T10:04:44.042Z,14.30
2018-10-05T10:07:13.229Z,14.50
2018-10-05T10:09:42.377Z,13.13
2018-10-05T10:12:11.541Z,14.47
2018-10-05T10:14:40.730Z,12.40
2018-10-05T10:17:09.943Z,13.50
2018-10-05T10:19:39.130Z,14.50
2018-10-05T10:22:08.418Z,14.03
2018-10-05T10:24:37.553Z,14.23
2018-10-05T10:27:06.981Z,13.60
2018-10-05T10:29:36.148Z,14.83
2018-10-05T10:32:05.339Z,14.50
2018-10-05T10:34:34.532Z,14.43
2018-10-05T10:37:03.663Z,13.10
2018-10-05T10:39:32.862Z,13.67
2018-10-05T10:42:02.078Z,13.97
2018-10-05T10:44:31.291Z,13.40
2018-10-05T10:47:00.493Z,14.70
2018-10-05T10:49:29.681Z,13.53
2018-10-05T10:51:58.938Z,13.83
2018-10-05T10:54:28.096Z,14.30
2018-10-05T10:56:57.288Z,13.43
2018-10-05T10:59:26.492Z,12.50
2018-10-05T11:01:55.669Z,12.97
2018-10-05T11:04:24.888Z,13.90
2018-10-05T11:06:53.990Z,13.60
2018-10-05T11:09:23.146Z,13.27
2018-10-05T11:11:52.333Z,11.80
2018-10-05T11:14:21.505Z,12.97
2018-10-05T11:16:50.734Z,14.33
2018-10-05T11:19:19.899Z,13.23
2018-10-05T11:21:49.221Z,12.93
2018-10-05T11:24:18.364Z,13.37
2018-10-05T11:26:47.557Z,13.30
2018-10-05T11:29:16.857Z,13.93
2018-10-05T11:31:46.040Z,13.93
2018-10-05T11:34:15.339Z,12.10
2018-10-05T11:36:46.118Z,12.50
2018-10-05T11:39:15.241Z,13.40
2018-10-05T11:41:44.450Z,13.00
2018-10-05T11:44:13.969Z,13.13
2018-10-05T11:46:43.102Z,12.33
2018-10-05T11:49:12.285Z,12.07
2018-10-05T11:51:41.517Z,11.93
2018-10-05T11:54:10.686Z,11.63
2018-10-05T11:56:40.681Z,12.40
2018-10-05T11:59:09.878Z,12.87
2018-10-05T12:01:39.230Z,12.13
2018-10-05T12:04:08.385Z,11.70
2018-10-05T12:06:37.642Z,12.83
2018-10-05T12:09:08.322Z,11.80
2018-10-05T12:11:38.792Z,12.93
2018-10-05T12:14:08.045Z,11.73
2018-10-05T12:16:37.222Z,13.00
2018-10-05T12:19:07.582Z,11.67
2018-10-05T12:21:36.705Z,12.67
2018-10-05T12:24:05.873Z,11.97
2018-10-05T12:26:35.622Z,11.67
2018-10-05T12:29:04.806Z,12.13
2018-10-05T12:31:34.016Z,13.80
2018-10-05T12:34:04.133Z,11.50
2018-10-05T12:36:33.304Z,12.77
2018-10-05T12:39:02.616Z,11.80
2018-10-05T12:41:31.790Z,12.10
2018-10-05T12:44:00.926Z,11.13
2018-10-05T12:46:30.390Z,11.53
2018-10-05T12:48:59.605Z,11.73
2018-10-05T12:51:28.824Z,12.57
2018-10-05T12:53:58.045Z,12.27
2018-10-05T12:56:27.349Z,12.63
2018-10-05T12:58:58.182Z,13.27
2018-10-05T13:01:27.333Z,13.13
2018-10-05T13:03:56.717Z,11.60
2018-10-05T13:06:25.893Z,10.63
2018-10-05T13:08:55.250Z,8.60
2018-10-05T13:11:24.526Z,8.67
2018-10-05T13:13:53.836Z,8.17
2018-10-05T13:16:23.065Z,8.77
2018-10-05T13:18:52.289Z,8.47
2018-10-05T13:21:21.478Z,8.60
2018-10-05T13:23:50.652Z,8.97
2018-10-05T13:26:22.801Z,8.57
2018-10-05T13:28:52.066Z,7.93
2018-10-05T13:31:21.417Z,7.57
2018-10-05T13:33:50.596Z,8.77
2018-10-05T13:36:19.828Z,10.10
2018-10-05T13:38:49.249Z,8.27
2018-10-05T13:41:18.387Z,8.43
2018-10-05T13:43:47.934Z,11.67
2018-10-05T13:46:17.188Z,10.33
2018-10-05T13:48:46.398Z,7.83
2018-10-05T13:51:15.551Z,10.43
2018-10-05T13:53:45.300Z,8.07
2018-10-05T13:56:16.088Z,8.70
2018-10-05T13:58:45.582Z,7.80
2018-10-05T14:01:15.571Z,9.13
2018-10-05T14:03:44.709Z,8.03
2018-10-05T14:06:13.934Z,7.60
2018-10-05T14:08:43.169Z,7.37
2018-10-05T14:11:12.486Z,8.03
2018-10-05T14:13:41.684Z,9.33
2018-10-05T14:16:10.851Z,7.60
2018-10-05T14:18:40.078Z,6.90
2018-10-05T14:21:09.458Z,8.63
2018-10-05T14:23:38.619Z,6.30
2018-10-05T14:26:08.009Z,7.13
2018-10-05T14:28:37.220Z,6.00
2018-10-05T14:31:06.926Z,6.93
2018-10-05T14:33:36.174Z,6.70
2018-10-05T14:36:05.419Z,6.20
2018-10-05T14:38:34.612Z,7.27
2018-10-05T14:41:03.889Z,6.27
2018-10-05T14:43:33.079Z,6.47
2018-10-05T14:46:02.778Z,5.93
2018-10-05T14:48:31.907Z,7.90
2018-10-05T14:51:01.116Z,7.40
2018-10-05T14:53:30.293Z,6.83
2018-10-05T14:55:59.477Z,6.90
2018-10-05T14:58:28.671Z,5.33
2018-10-05T15:00:57.908Z,5.90
2018-10-05T15:03:27.044Z,5.60
2018-10-05T15:05:56.208Z,6.27
2018-10-05T15:08:25.409Z,7.00
2018-10-05T15:10:54.567Z,5.90
2018-10-05T15:13:23.828Z,6.33
2018-10-05T15:15:53.070Z,6.03
2018-10-05T15:18:22.341Z,7.10
2018-10-05T15:20:51.495Z,6.47
2018-10-05T15:23:20.726Z,6.60
2018-10-05T15:25:49.893Z,6.33
2018-10-05T15:28:19.103Z,6.50
2018-10-05T15:30:48.250Z,5.70
2018-10-05T15:33:17.773Z,5.67
2018-10-05T15:35:46.934Z,5.17
2018-10-05T15:38:16.143Z,5.50
2018-10-05T15:40:45.572Z,5.60
2018-10-05T15:43:14.771Z,6.27
2018-10-05T15:45:43.955Z,5.47
2018-10-05T15:48:13.141Z,5.93
2018-10-05T15:50:42.380Z,5.97
2018-10-05T15:53:11.676Z,5.77
2018-10-05T15:55:41.961Z,5.70
2018-10-05T15:58:11.162Z,5.60
2018-10-05T16:00:40.505Z,5.00
2018-10-05T16:03:09.664Z,6.17
2018-10-05T16:05:38.901Z,6.63
2018-10-05T16:08:08.140Z,6.87
2018-10-05T16:10:37.400Z,5.03
2018-10-05T16:13:07.168Z,5.67
2018-10-05T16:15:36.386Z,5.03
2018-10-05T16:18:05.689Z,4.87
2018-10-05T16:20:36.321Z,5.73
2018-10-05T16:23:05.578Z,5.67
2018-10-05T16:25:34.766Z,5.20
2018-10-05T16:28:03.949Z,5.30
2018-10-05T16:30:33.128Z,5.97
2018-10-05T16:33:02.245Z,5.90
2018-10-05T16:35:31.421Z,6.40
2018-10-05T16:38:00.600Z,5.70
2018-10-05T16:40:29.744Z,5.23
2018-10-05T16:42:59.190Z,5.27
2018-10-05T16:45:28.397Z,5.23
2018-10-05T16:47:57.613Z,5.83
2018-10-05T16:50:26.815Z,6.10
2018-10-05T16:52:56.182Z,5.40
2018-10-05T16:55:25.339Z,5.67
2018-10-05T16:58:02.670Z,5.73
2018-10-05T17:00:34.977Z,6.20
2018-10-05T17:03:05.641Z,6.47
2018-10-05T17:05:35.120Z,6.17
2018-10-05T17:08:04.891Z,6.43
2018-10-05T17:10:34.423Z,6.03
2018-10-05T17:13:03.478Z,6.80
2018-10-05T17:15:33.298Z,6.10
2018-10-05T17:18:03.020Z,6.40
2018-10-05T17:20:33.413Z,6.93
2018-10-05T17:23:02.757Z,6.13
2018-10-05T17:25:32.466Z,6.90
2018-10-05T17:28:01.773Z,6.60
2018-10-05T17:30:33.271Z,6.63
2018-10-05T17:33:02.687Z,6.77
2018-10-05T17:35:31.877Z,6.43
2018-10-05T17:38:01.173Z,6.23
2018-10-05T17:40:31.896Z,7.20
2018-10-05T17:43:01.106Z,7.67
2018-10-05T17:45:30.271Z,7.60
2018-10-05T17:48:00.208Z,8.20
2018-10-05T17:50:29.378Z,7.40
2018-10-05T17:53:00.392Z,7.63
2018-10-05T17:55:31.110Z,7.37
2018-10-05T17:58:00.398Z,7.00
2018-10-05T18:03:18.296Z,7.00
2018-10-05T18:05:50.148Z,7.17
2018-10-05T18:08:31.200Z,7.73
2018-10-05T18:11:15.093Z,8.50
2018-10-05T18:13:49.142Z,7.90
2018-10-05T18:16:38.307Z,8.03
2018-10-05T18:19:14.345Z,9.10
2018-10-05T18:21:43.965Z,8.60
2018-10-05T18:24:13.325Z,9.50
2018-10-05T18:26:42.706Z,9.70
2018-10-05T18:29:12.071Z,8.07
2018-10-05T18:31:41.531Z,7.53
2018-10-05T18:34:10.967Z,7.90
2018-10-05T18:36:40.234Z,8.10
2018-10-05T18:39:10.900Z,7.97
2018-10-05T18:41:40.339Z,7.50
2018-10-05T18:44:09.911Z,8.10
2018-10-05T18:46:43.341Z,9.00
2018-10-05T18:49:13.070Z,8.90
2018-10-05T18:51:42.251Z,8.60
2018-10-05T18:54:11.661Z,8.80
2018-10-05T18:56:52.057Z,8.43
2018-10-05T18:59:21.563Z,8.30
2018-10-05T19:01:50.680Z,8.60
2018-10-05T19:04:20.119Z,8.47
2018-10-05T19:06:50.273Z,8.50
2018-10-05T19:09:19.625Z,8.90
2018-10-05T19:11:48.838Z,8.47
2018-10-05T19:14:18.076Z,8.97
2018-10-05T19:16:47.204Z,9.53
2018-10-05T19:19:16.359Z,9.33
2018-10-05T19:21:45.569Z,10.07
2018-10-05T19:24:15.157Z,10.27
2018-10-05T19:26:44.514Z,9.10
2018-10-05T19:29:13.600Z,9.20
2018-10-05T19:31:42.806Z,9.80
2018-10-05T19:34:11.954Z,9.37
2018-10-05T19:36:41.163Z,8.80
2018-10-05T19:39:11.514Z,9.37
2018-10-05T19:41:41.233Z,9.20
2018-10-05T19:44:12.669Z,10.00
2018-10-05T19:46:41.913Z,9.43
2018-10-05T19:49:11.118Z,9.10
2018-10-05T19:51:40.253Z,9.23
2018-10-05T19:54:09.405Z,9.53
2018-10-05T19:56:38.564Z,9.57
2018-10-05T19:59:09.034Z,10.43
2018-10-05T20:01:38.290Z,9.77
2018-10-05T20:04:07.458Z,9.87
2018-10-05T20:06:36.715Z,13.13
2018-10-05T20:09:07.856Z,13.90
2018-10-05T20:11:37.468Z,15.67
2018-10-05T20:14:06.631Z,14.90
2018-10-05T20:16:35.837Z,14.93
2018-10-05T20:19:05.094Z,14.73
2018-10-05T20:21:34.325Z,12.60
2018-10-05T20:24:04.449Z,12.20
2018-10-05T20:26:33.589Z,13.30
2018-10-05T20:29:02.913Z,13.80
2018-10-05T20:31:32.876Z,12.43
2018-10-05T20:34:03.679Z,12.23
2018-10-05T20:36:32.977Z,12.60
2018-10-05T20:39:02.046Z,12.47
2018-10-05T20:41:31.262Z,14.13
2018-10-05T20:44:00.463Z,14.03
2018-10-05T20:46:30.797Z,13.67
2018-10-05T20:49:00.017Z,13.50
2018-10-05T20:51:29.338Z,15.00
2018-10-05T20:54:01.545Z,13.30
2018-10-05T20:56:31.535Z,15.10
2018-10-05T20:59:02.662Z,14.67
2018-10-05T21:01:32.290Z,15.00
2018-10-05T21:04:01.867Z,14.80
2018-10-05T21:06:31.787Z,14.67
2018-10-05T21:09:02.067Z,15.70
2018-10-05T21:11:33.539Z,14.97
2018-10-05T21:14:06.487Z,14.60
2018-10-05T21:16:37.608Z,14.43
2018-10-05T21:19:08.904Z,14.63
2018-10-05T21:21:39.348Z,16.00
2018-10-05T21:24:08.653Z,15.30
2018-10-05T21:26:41.118Z,14.60
2018-10-05T21:29:19.432Z,15.40
2018-10-05T21:31:49.233Z,14.77
2018-10-05T21:34:18.581Z,14.53
2018-10-05T21:36:48.877Z,14.87
2018-10-05T21:39:18.418Z,14.57
2018-10-05T21:41:47.887Z,16.00
2018-10-05T21:44:22.563Z,15.37
2018-10-05T21:46:52.735Z,16.67
2018-10-05T21:49:22.165Z,16.60
2018-10-05T21:51:51.486Z,17.63
2018-10-05T21:54:20.860Z,17.30
2018-10-05T21:56:55.729Z,16.33
2018-10-05T21:59:25.042Z,17.37
2018-10-05T22:01:54.508Z,15.93
2018-10-05T22:04:30.899Z,16.77
2018-10-05T22:07:00.262Z,16.83
2018-10-05T22:09:29.876Z,16.03
2018-10-05T22:12:04.039Z,15.30
2018-10-05T22:14:33.301Z,16.03
2018-10-05T22:17:02.737Z,14.90
2018-10-05T22:19:32.875Z,16.30
2018-10-05T22:22:02.148Z,15.53
2018-10-05T22:24:36.772Z,14.90
2018-10-05T22:27:09.705Z,15.50
2018-10-05T22:29:39.407Z,16.37
2018-10-05T22:32:08.936Z,16.07
2018-10-05T22:34:45.339Z,15.30
2018-10-05T22:37:14.842Z,16.90
2018-10-05T22:39:44.296Z,16.40
2018-10-05T22:42:13.663Z,16.80
2018-10-05T22:44:42.970Z,14.67
2018-10-05T22:47:12.235Z,15.20
2018-10-05T22:49:41.391Z,16.20
2018-10-05T22:52:10.851Z,16.83
2018-10-05T22:54:40.305Z,16.23
2018-10-05T22:57:09.595Z,15.77
2018-10-05T22:59:38.800Z,16.40
2018-10-05T23:02:08.001Z,16.10
2018-10-05T23:04:37.227Z,15.73
2018-10-05T23:07:06.760Z,16.73
2018-10-05T23:09:35.996Z,17.50
2018-10-05T23:12:05.273Z,17.50
2018-10-05T23:14:34.563Z,15.97
2018-10-05T23:17:03.969Z,15.80
2018-10-05T23:19:33.602Z,15.27
2018-10-05T23:22:02.999Z,15.87
2018-10-05T23:24:32.183Z,17.37
2018-10-05T23:27:01.350Z,18.50
2018-10-05T23:29:30.575Z,16.50
2018-10-05T23:31:59.772Z,15.17
2018-10-05T23:34:29.001Z,15.77
2018-10-05T23:36:58.303Z,17.00
2018-10-05T23:39:27.567Z,16.90
2018-10-05T23:41:57.005Z,17.00
2018-10-05T23:44:26.244Z,17.20
2018-10-05T23:46:55.486Z,17.10
2018-10-05T23:49:24.687Z,16.27
2018-10-05T23:51:53.985Z,16.70
2018-10-05T23:54:23.197Z,16.47
2018-10-05T23:56:52.385Z,16.73
2018-10-05T23:59:21.608Z,16.20
